sensor_id;sensor_type;location;lat;lon;timestamp;P1;durP1;ratioP1;P2;durP2;ratioP2
21621;SDS011;10973;46.706;12.340;2023-04-01T00:00:05;2.80;;;2.60;;
21621;SDS011;10973;46.706;12.340;2023-04-01T00:02:33;2.20;;;2.10;;
21621;SDS011;10973;46.706;12.340;2023-04-01T00:05:00;2.00;;;1.90;;
21621;SDS011;10973;46.706;12.340;2023-04-01T00:07:28;2.30;;;2.20;;
21621;SDS011;10973;46.706;12.340;2023-04-01T00:09:56;2.23;;;2.13;;
21621;SDS011;10973;46.706;12.340;2023-04-01T00:12:23;2.70;;;2.27;;
21621;SDS011;10973;46.706;12.340;2023-04-01T00:14:51;3.80;;;2.40;;
21621;SDS011;10973;46.706;12.340;2023-04-01T00:17:18;2.10;;;2.00;;
21621;SDS011;10973;46.706;12.340;2023-04-01T00:19:45;3.33;;;1.97;;
21621;SDS011;10973;46.706;12.340;2023-04-01T00:22:13;1.60;;;1.60;;
21621;SDS011;10973;46.706;12.340;2023-04-01T00:24:40;2.07;;;1.97;;
21621;SDS011;10973;46.706;12.340;2023-04-01T00:27:07;2.03;;;1.93;;
21621;SDS011;10973;46.706;12.340;2023-04-01T00:29:35;2.00;;;1.90;;
21621;SDS011;10973;46.706;12.340;2023-04-01T00:32:02;1.50;;;1.50;;
21621;SDS011;10973;46.706;12.340;2023-04-01T00:34:30;1.73;;;1.63;;
21621;SDS011;10973;46.706;12.340;2023-04-01T00:36:57;2.00;;;1.90;;
21621;SDS011;10973;46.706;12.340;2023-04-01T00:39:24;1.83;;;1.73;;
21621;SDS011;10973;46.706;12.340;2023-04-01T00:41:51;1.93;;;1.90;;
21621;SDS011;10973;46.706;12.340;2023-04-01T00:44:20;1.90;;;1.80;;
21621;SDS011;10973;46.706;12.340;2023-04-01T00:46:51;1.67;;;1.67;;
21621;SDS011;10973;46.706;12.340;2023-04-01T00:49:22;1.70;;;1.70;;
21621;SDS011;10973;46.706;12.340;2023-04-01T00:51:55;1.90;;;1.80;;
21621;SDS011;10973;46.706;12.340;2023-04-01T00:54:27;1.90;;;1.80;;
21621;SDS011;10973;46.706;12.340;2023-04-01T00:57:01;2.00;;;1.90;;
21621;SDS011;10973;46.706;12.340;2023-04-01T00:59:39;2.20;;;2.10;;
21621;SDS011;10973;46.706;12.340;2023-04-01T01:02:17;1.97;;;1.87;;
21621;SDS011;10973;46.706;12.340;2023-04-01T01:04:45;2.03;;;1.93;;
21621;SDS011;10973;46.706;12.340;2023-04-01T01:35:27;7.30;;;5.50;;
21621;SDS011;10973;46.706;12.340;2023-04-01T01:38:17;7.00;;;4.77;;
21621;SDS011;10973;46.706;12.340;2023-04-01T01:40:51;6.80;;;4.53;;
21621;SDS011;10973;46.706;12.340;2023-04-01T01:43:24;5.80;;;5.17;;
21621;SDS011;10973;46.706;12.340;2023-04-01T01:45:58;4.50;;;3.93;;
21621;SDS011;10973;46.706;12.340;2023-04-01T01:48:34;5.50;;;3.33;;
21621;SDS011;10973;46.706;12.340;2023-04-01T01:51:03;4.10;;;3.70;;
21621;SDS011;10973;46.706;12.340;2023-04-01T01:53:33;4.60;;;4.07;;
21621;SDS011;10973;46.706;12.340;2023-04-01T01:56:01;4.47;;;3.53;;
21621;SDS011;10973;46.706;12.340;2023-04-01T01:58:33;3.60;;;3.30;;
21621;SDS011;10973;46.706;12.340;2023-04-01T02:01:13;4.17;;;3.50;;
21621;SDS011;10973;46.706;12.340;2023-04-01T02:03:45;5.50;;;3.57;;
21621;SDS011;10973;46.706;12.340;2023-04-01T02:06:18;3.53;;;3.23;;
21621;SDS011;10973;46.706;12.340;2023-04-01T02:08:51;4.00;;;3.07;;
21621;SDS011;10973;46.706;12.340;2023-04-01T02:14:11;3.00;;;2.80;;
21621;SDS011;10973;46.706;12.340;2023-04-01T02:16:55;2.87;;;2.67;;
21621;SDS011;10973;46.706;12.340;2023-04-01T02:19:33;3.30;;;3.10;;
21621;SDS011;10973;46.706;12.340;2023-04-01T02:22:11;3.50;;;3.20;;
21621;SDS011;10973;46.706;12.340;2023-04-01T02:24:46;4.53;;;3.43;;
21621;SDS011;10973;46.706;12.340;2023-04-01T02:27:16;3.63;;;3.30;;
21621;SDS011;10973;46.706;12.340;2023-04-01T02:29:44;4.20;;;3.37;;
21621;SDS011;10973;46.706;12.340;2023-04-01T02:32:11;3.40;;;3.10;;
21621;SDS011;10973;46.706;12.340;2023-04-01T02:34:41;4.87;;;2.90;;
21621;SDS011;10973;46.706;12.340;2023-04-01T02:37:10;3.23;;;3.00;;
21621;SDS011;10973;46.706;12.340;2023-04-01T02:39:39;4.63;;;3.20;;
21621;SDS011;10973;46.706;12.340;2023-04-01T02:42:07;3.20;;;2.90;;
21621;SDS011;10973;46.706;12.340;2023-04-01T02:44:35;3.43;;;3.13;;
21621;SDS011;10973;46.706;12.340;2023-04-01T02:47:02;4.13;;;3.60;;
21621;SDS011;10973;46.706;12.340;2023-04-01T02:49:30;4.33;;;3.67;;
21621;SDS011;10973;46.706;12.340;2023-04-01T02:51:57;5.23;;;3.57;;
21621;SDS011;10973;46.706;12.340;2023-04-01T02:54:25;4.10;;;3.60;;
21621;SDS011;10973;46.706;12.340;2023-04-01T02:56:52;3.83;;;3.53;;
21621;SDS011;10973;46.706;12.340;2023-04-01T02:59:19;3.57;;;3.27;;
21621;SDS011;10973;46.706;12.340;2023-04-01T03:01:46;5.40;;;3.50;;
21621;SDS011;10973;46.706;12.340;2023-04-01T03:04:14;4.67;;;3.50;;
21621;SDS011;10973;46.706;12.340;2023-04-01T03:06:41;3.83;;;3.43;;
21621;SDS011;10973;46.706;12.340;2023-04-01T03:09:08;3.57;;;3.27;;
21621;SDS011;10973;46.706;12.340;2023-04-01T03:11:35;3.37;;;3.07;;
21621;SDS011;10973;46.706;12.340;2023-04-01T03:14:02;3.63;;;3.33;;
21621;SDS011;10973;46.706;12.340;2023-04-01T03:16:29;3.87;;;3.53;;
21621;SDS011;10973;46.706;12.340;2023-04-01T03:18:57;3.40;;;3.10;;
21621;SDS011;10973;46.706;12.340;2023-04-01T03:21:25;4.93;;;3.77;;
21621;SDS011;10973;46.706;12.340;2023-04-01T03:23:52;3.77;;;3.47;;
21621;SDS011;10973;46.706;12.340;2023-04-01T03:26:19;3.57;;;3.17;;
21621;SDS011;10973;46.706;12.340;2023-04-01T03:28:47;3.40;;;3.10;;
21621;SDS011;10973;46.706;12.340;2023-04-01T03:31:14;3.67;;;3.30;;
21621;SDS011;10973;46.706;12.340;2023-04-01T03:33:41;3.50;;;3.20;;
21621;SDS011;10973;46.706;12.340;2023-04-01T03:36:09;3.13;;;2.93;;
21621;SDS011;10973;46.706;12.340;2023-04-01T03:38:37;3.13;;;2.93;;
21621;SDS011;10973;46.706;12.340;2023-04-01T03:41:06;3.73;;;3.43;;
21621;SDS011;10973;46.706;12.340;2023-04-01T03:43:33;4.00;;;3.70;;
21621;SDS011;10973;46.706;12.340;2023-04-01T03:46:00;4.33;;;3.93;;
21621;SDS011;10973;46.706;12.340;2023-04-01T03:48:27;3.80;;;3.50;;
21621;SDS011;10973;46.706;12.340;2023-04-01T03:50:55;5.07;;;4.57;;
21621;SDS011;10973;46.706;12.340;2023-04-01T03:53:22;5.30;;;4.80;;
21621;SDS011;10973;46.706;12.340;2023-04-01T03:55:50;4.57;;;4.13;;
21621;SDS011;10973;46.706;12.340;2023-04-01T03:58:17;4.93;;;3.43;;
21621;SDS011;10973;46.706;12.340;2023-04-01T04:00:44;3.87;;;3.57;;
21621;SDS011;10973;46.706;12.340;2023-04-01T04:03:12;4.70;;;4.30;;
21621;SDS011;10973;46.706;12.340;2023-04-01T04:05:49;5.63;;;3.97;;
21621;SDS011;10973;46.706;12.340;2023-04-01T04:08:16;4.30;;;3.90;;
21621;SDS011;10973;46.706;12.340;2023-04-01T04:10:44;5.70;;;4.07;;
21621;SDS011;10973;46.706;12.340;2023-04-01T04:13:11;4.43;;;4.03;;
21621;SDS011;10973;46.706;12.340;2023-04-01T04:15:38;3.30;;;3.10;;
21621;SDS011;10973;46.706;12.340;2023-04-01T04:18:06;4.00;;;3.70;;
21621;SDS011;10973;46.706;12.340;2023-04-01T04:20:33;3.73;;;3.43;;
21621;SDS011;10973;46.706;12.340;2023-04-01T04:23:00;3.83;;;3.30;;
21621;SDS011;10973;46.706;12.340;2023-04-01T04:25:27;3.90;;;3.60;;
21621;SDS011;10973;46.706;12.340;2023-04-01T04:27:55;4.20;;;3.90;;
21621;SDS011;10973;46.706;12.340;2023-04-01T04:30:22;5.53;;;4.17;;
21621;SDS011;10973;46.706;12.340;2023-04-01T04:32:49;4.40;;;3.90;;
21621;SDS011;10973;46.706;12.340;2023-04-01T04:35:16;4.50;;;4.10;;
21621;SDS011;10973;46.706;12.340;2023-04-01T04:37:44;4.37;;;3.97;;
21621;SDS011;10973;46.706;12.340;2023-04-01T04:40:11;29.43;;;21.50;;
21621;SDS011;10973;46.706;12.340;2023-04-01T04:42:38;15.20;;;12.57;;
21621;SDS011;10973;46.706;12.340;2023-04-01T04:45:05;7.90;;;6.97;;
21621;SDS011;10973;46.706;12.340;2023-04-01T04:47:33;4.30;;;3.90;;
21621;SDS011;10973;46.706;12.340;2023-04-01T04:50:00;3.70;;;3.40;;
21621;SDS011;10973;46.706;12.340;2023-04-01T04:52:27;3.77;;;3.47;;
21621;SDS011;10973;46.706;12.340;2023-04-01T04:54:54;3.60;;;3.40;;
21621;SDS011;10973;46.706;12.340;2023-04-01T04:57:22;3.17;;;2.97;;
21621;SDS011;10973;46.706;12.340;2023-04-01T04:59:49;4.50;;;4.10;;
21621;SDS011;10973;46.706;12.340;2023-04-01T05:02:17;4.30;;;3.90;;
21621;SDS011;10973;46.706;12.340;2023-04-01T05:04:44;6.00;;;5.50;;
21621;SDS011;10973;46.706;12.340;2023-04-01T05:07:11;4.63;;;4.23;;
21621;SDS011;10973;46.706;12.340;2023-04-01T05:09:39;4.57;;;4.17;;
21621;SDS011;10973;46.706;12.340;2023-04-01T05:12:06;5.10;;;4.60;;
21621;SDS011;10973;46.706;12.340;2023-04-01T05:14:33;5.03;;;4.63;;
21621;SDS011;10973;46.706;12.340;2023-04-01T05:17:00;5.10;;;4.70;;
21621;SDS011;10973;46.706;12.340;2023-04-01T05:19:28;5.87;;;5.47;;
21621;SDS011;10973;46.706;12.340;2023-04-01T05:21:55;4.10;;;3.80;;
21621;SDS011;10973;46.706;12.340;2023-04-01T05:24:22;3.40;;;3.20;;
21621;SDS011;10973;46.706;12.340;2023-04-01T05:26:52;4.23;;;3.87;;
21621;SDS011;10973;46.706;12.340;2023-04-01T05:29:22;5.60;;;5.10;;
21621;SDS011;10973;46.706;12.340;2023-04-01T05:31:51;5.43;;;4.90;;
21621;SDS011;10973;46.706;12.340;2023-04-01T05:34:18;4.57;;;4.27;;
21621;SDS011;10973;46.706;12.340;2023-04-01T05:36:45;7.23;;;6.23;;
21621;SDS011;10973;46.706;12.340;2023-04-01T05:39:12;11.10;;;8.20;;
21621;SDS011;10973;46.706;12.340;2023-04-01T05:41:40;15.07;;;9.30;;
21621;SDS011;10973;46.706;12.340;2023-04-01T05:44:07;9.80;;;7.57;;
21621;SDS011;10973;46.706;12.340;2023-04-01T05:46:39;6.37;;;5.37;;
21621;SDS011;10973;46.706;12.340;2023-04-01T05:49:06;9.63;;;6.70;;
21621;SDS011;10973;46.706;12.340;2023-04-01T05:51:34;12.57;;;8.80;;
21621;SDS011;10973;46.706;12.340;2023-04-01T05:54:01;10.70;;;8.27;;
21621;SDS011;10973;46.706;12.340;2023-04-01T05:56:31;9.10;;;6.87;;
21621;SDS011;10973;46.706;12.340;2023-04-01T05:58:58;6.07;;;5.47;;
21621;SDS011;10973;46.706;12.340;2023-04-01T06:01:25;6.20;;;5.57;;
21621;SDS011;10973;46.706;12.340;2023-04-01T06:03:53;5.73;;;5.20;;
21621;SDS011;10973;46.706;12.340;2023-04-01T06:06:24;5.33;;;4.83;;
21621;SDS011;10973;46.706;12.340;2023-04-01T06:08:56;7.63;;;6.00;;
21621;SDS011;10973;46.706;12.340;2023-04-01T06:35:28;5.80;;;5.30;;
21621;SDS011;10973;46.706;12.340;2023-04-01T06:38:20;4.90;;;4.50;;
21621;SDS011;10973;46.706;12.340;2023-04-01T06:44:15;5.97;;;5.47;;
21621;SDS011;10973;46.706;12.340;2023-04-01T06:47:01;5.00;;;4.60;;
21621;SDS011;10973;46.706;12.340;2023-04-01T06:49:50;4.57;;;4.20;;
21621;SDS011;10973;46.706;12.340;2023-04-01T06:58:41;5.17;;;4.73;;
21621;SDS011;10973;46.706;12.340;2023-04-01T07:01:21;4.70;;;4.30;;
21621;SDS011;10973;46.706;12.340;2023-04-01T07:04:00;5.40;;;4.90;;
21621;SDS011;10973;46.706;12.340;2023-04-01T07:07:02;5.53;;;5.03;;
21621;SDS011;10973;46.706;12.340;2023-04-01T07:09:37;6.13;;;5.53;;
21621;SDS011;10973;46.706;12.340;2023-04-01T07:12:15;5.23;;;4.83;;
21621;SDS011;10973;46.706;12.340;2023-04-01T07:14:58;5.70;;;4.53;;
21621;SDS011;10973;46.706;12.340;2023-04-01T07:17:41;5.47;;;4.97;;
21621;SDS011;10973;46.706;12.340;2023-04-01T07:23:00;5.40;;;4.67;;
21621;SDS011;10973;46.706;12.340;2023-04-01T07:25:37;5.27;;;4.83;;
21621;SDS011;10973;46.706;12.340;2023-04-01T07:28:14;5.33;;;4.83;;
21621;SDS011;10973;46.706;12.340;2023-04-01T07:33:19;4.27;;;3.97;;
21621;SDS011;10973;46.706;12.340;2023-04-01T07:36:24;4.63;;;4.23;;
21621;SDS011;10973;46.706;12.340;2023-04-01T07:42:16;3.60;;;3.40;;
21621;SDS011;10973;46.706;12.340;2023-04-01T07:45:20;4.30;;;3.90;;
21621;SDS011;10973;46.706;12.340;2023-04-01T07:59:14;3.23;;;3.03;;
21621;SDS011;10973;46.706;12.340;2023-04-01T08:10:55;3.97;;;3.63;;
21621;SDS011;10973;46.706;12.340;2023-04-01T08:22:27;2.90;;;2.70;;
21621;SDS011;10973;46.706;12.340;2023-04-01T08:25:09;2.80;;;2.60;;
21621;SDS011;10973;46.706;12.340;2023-04-01T08:28:10;3.17;;;2.97;;
21621;SDS011;10973;46.706;12.340;2023-04-01T08:31:22;2.47;;;2.37;;
21621;SDS011;10973;46.706;12.340;2023-04-01T08:34:40;3.10;;;2.90;;
21621;SDS011;10973;46.706;12.340;2023-04-01T08:37:17;2.27;;;2.17;;
21621;SDS011;10973;46.706;12.340;2023-04-01T08:40:16;2.37;;;2.17;;
21621;SDS011;10973;46.706;12.340;2023-04-01T08:43:05;2.37;;;2.23;;
21621;SDS011;10973;46.706;12.340;2023-04-01T08:46:06;2.30;;;2.20;;
21621;SDS011;10973;46.706;12.340;2023-04-01T08:49:00;2.30;;;2.17;;
21621;SDS011;10973;46.706;12.340;2023-04-01T09:18:12;1.97;;;1.87;;
21621;SDS011;10973;46.706;12.340;2023-04-01T09:49:36;1.90;;;1.80;;
21621;SDS011;10973;46.706;12.340;2023-04-01T09:59:11;2.20;;;2.00;;
21621;SDS011;10973;46.706;12.340;2023-04-01T10:20:06;7.63;;;5.33;;
21621;SDS011;10973;46.706;12.340;2023-04-01T10:26:12;1.40;;;1.40;;
21621;SDS011;10973;46.706;12.340;2023-04-01T10:29:02;1.50;;;1.40;;
21621;SDS011;10973;46.706;12.340;2023-04-01T10:38:01;1.10;;;1.10;;
21621;SDS011;10973;46.706;12.340;2023-04-01T10:47:39;1.30;;;1.20;;
21621;SDS011;10973;46.706;12.340;2023-04-01T10:55:32;1.45;;;1.38;;
21621;SDS011;10973;46.706;12.340;2023-04-01T11:28:53;0.70;;;0.70;;
21621;SDS011;10973;46.706;12.340;2023-04-01T11:31:55;0.80;;;0.80;;
21621;SDS011;10973;46.706;12.340;2023-04-01T11:38:00;0.80;;;0.80;;
21621;SDS011;10973;46.706;12.340;2023-04-01T11:43:45;0.70;;;0.70;;
21621;SDS011;10973;46.706;12.340;2023-04-01T11:46:44;0.67;;;0.67;;
21621;SDS011;10973;46.706;12.340;2023-04-01T12:13:53;1.50;;;1.40;;
21621;SDS011;10973;46.706;12.340;2023-04-01T12:16:46;1.70;;;1.60;;
21621;SDS011;10973;46.706;12.340;2023-04-01T12:22:55;0.90;;;0.90;;
21621;SDS011;10973;46.706;12.340;2023-04-01T12:28:23;1.23;;;0.70;;
21621;SDS011;10973;46.706;12.340;2023-04-01T12:31:19;0.80;;;0.80;;
21621;SDS011;10973;46.706;12.340;2023-04-01T12:59:44;1.73;;;1.63;;
21621;SDS011;10973;46.706;12.340;2023-04-01T13:06:14;1.00;;;1.00;;
21621;SDS011;10973;46.706;12.340;2023-04-01T13:15:26;0.90;;;0.90;;
21621;SDS011;10973;46.706;12.340;2023-04-01T13:29:40;1.60;;;0.60;;
21621;SDS011;10973;46.706;12.340;2023-04-01T13:32:37;0.60;;;0.60;;
21621;SDS011;10973;46.706;12.340;2023-04-01T13:35:43;0.67;;;0.67;;
21621;SDS011;10973;46.706;12.340;2023-04-01T13:58:54;0.83;;;0.83;;
21621;SDS011;10973;46.706;12.340;2023-04-01T14:01:58;1.17;;;0.70;;
21621;SDS011;10973;46.706;12.340;2023-04-01T14:05:03;0.70;;;0.70;;
21621;SDS011;10973;46.706;12.340;2023-04-01T14:25:58;0.80;;;0.80;;
21621;SDS011;10973;46.706;12.340;2023-04-01T14:28:54;0.77;;;0.77;;
21621;SDS011;10973;46.706;12.340;2023-04-01T14:32:08;0.67;;;0.67;;
21621;SDS011;10973;46.706;12.340;2023-04-01T14:38:06;0.80;;;0.80;;
21621;SDS011;10973;46.706;12.340;2023-04-01T14:40:56;0.80;;;0.80;;
21621;SDS011;10973;46.706;12.340;2023-04-01T14:44:24;0.83;;;0.80;;
21621;SDS011;10973;46.706;12.340;2023-04-01T14:49:28;2.10;;;0.97;;
21621;SDS011;10973;46.706;12.340;2023-04-01T14:55:02;1.30;;;0.70;;
21621;SDS011;10973;46.706;12.340;2023-04-01T14:58:04;0.60;;;0.60;;
21621;SDS011;10973;46.706;12.340;2023-04-01T15:00:50;0.60;;;0.60;;
21621;SDS011;10973;46.706;12.340;2023-04-01T15:03:32;0.60;;;0.60;;
21621;SDS011;10973;46.706;12.340;2023-04-01T15:12:29;0.90;;;0.90;;
21621;SDS011;10973;46.706;12.340;2023-04-01T15:29:17;0.70;;;0.70;;
21621;SDS011;10973;46.706;12.340;2023-04-01T15:31:58;0.80;;;0.70;;
21621;SDS011;10973;46.706;12.340;2023-04-01T15:35:03;0.60;;;0.60;;
21621;SDS011;10973;46.706;12.340;2023-04-01T15:37:48;0.70;;;0.70;;
21621;SDS011;10973;46.706;12.340;2023-04-01T15:46:24;0.70;;;0.70;;
21621;SDS011;10973;46.706;12.340;2023-04-01T15:49:19;1.00;;;1.00;;
21621;SDS011;10973;46.706;12.340;2023-04-01T15:55:27;0.70;;;0.70;;
21621;SDS011;10973;46.706;12.340;2023-04-01T16:07:20;0.70;;;0.70;;
21621;SDS011;10973;46.706;12.340;2023-04-01T16:13:12;5.47;;;1.40;;
21621;SDS011;10973;46.706;12.340;2023-04-01T16:21:44;0.63;;;0.63;;
21621;SDS011;10973;46.706;12.340;2023-04-01T16:24:38;0.60;;;0.60;;
21621;SDS011;10973;46.706;12.340;2023-04-01T16:27:24;1.23;;;0.80;;
21621;SDS011;10973;46.706;12.340;2023-04-01T16:30:50;0.87;;;0.87;;
21621;SDS011;10973;46.706;12.340;2023-04-01T16:33:12;0.70;;;0.70;;
21621;SDS011;10973;46.706;12.340;2023-04-01T16:44:44;0.80;;;0.80;;
21621;SDS011;10973;46.706;12.340;2023-04-01T16:48:27;0.70;;;0.70;;
21621;SDS011;10973;46.706;12.340;2023-04-01T16:50:48;1.33;;;0.80;;
21621;SDS011;10973;46.706;12.340;2023-04-01T16:56:43;1.53;;;0.83;;
21621;SDS011;10973;46.706;12.340;2023-04-01T16:59:17;4.17;;;1.00;;
21621;SDS011;10973;46.706;12.340;2023-04-01T17:04:34;0.90;;;0.90;;
21621;SDS011;10973;46.706;12.340;2023-04-01T17:07:40;1.03;;;0.80;;
21621;SDS011;10973;46.706;12.340;2023-04-01T17:10:56;0.97;;;0.80;;
21621;SDS011;10973;46.706;12.340;2023-04-01T17:25:20;0.80;;;0.80;;
21621;SDS011;10973;46.706;12.340;2023-04-01T17:34:35;0.60;;;0.60;;
21621;SDS011;10973;46.706;12.340;2023-04-01T17:37:42;1.00;;;1.00;;
21621;SDS011;10973;46.706;12.340;2023-04-01T17:44:21;5.30;;;0.90;;
21621;SDS011;10973;46.706;12.340;2023-04-01T17:50:33;0.80;;;0.80;;
21621;SDS011;10973;46.706;12.340;2023-04-01T17:55:55;0.90;;;0.90;;
21621;SDS011;10973;46.706;12.340;2023-04-01T17:58:51;0.77;;;0.77;;
21621;SDS011;10973;46.706;12.340;2023-04-01T18:04:48;5.53;;;1.03;;
21621;SDS011;10973;46.706;12.340;2023-04-01T18:10:49;0.73;;;0.73;;
21621;SDS011;10973;46.706;12.340;2023-04-01T18:19:16;1.00;;;1.00;;
21621;SDS011;10973;46.706;12.340;2023-04-01T18:28:14;1.93;;;1.30;;
21621;SDS011;10973;46.706;12.340;2023-04-01T18:30:59;0.90;;;0.90;;
21621;SDS011;10973;46.706;12.340;2023-04-01T18:36:48;5.00;;;3.33;;
21621;SDS011;10973;46.706;12.340;2023-04-01T18:39:56;3.80;;;2.37;;
21621;SDS011;10973;46.706;12.340;2023-04-01T18:42:50;1.17;;;1.17;;
21621;SDS011;10973;46.706;12.340;2023-04-01T18:50:59;3.20;;;2.30;;
21621;SDS011;10973;46.706;12.340;2023-04-01T18:54:11;3.30;;;3.10;;
21621;SDS011;10973;46.706;12.340;2023-04-01T18:56:59;2.50;;;2.30;;
21621;SDS011;10973;46.706;12.340;2023-04-01T18:59:40;1.83;;;1.73;;
21621;SDS011;10973;46.706;12.340;2023-04-01T19:02:16;1.87;;;1.77;;
21621;SDS011;10973;46.706;12.340;2023-04-01T19:19:54;1.63;;;1.60;;
21621;SDS011;10973;46.706;12.340;2023-04-01T19:25:43;1.20;;;1.07;;
21621;SDS011;10973;46.706;12.340;2023-04-01T19:36:36;1.13;;;1.13;;
21621;SDS011;10973;46.706;12.340;2023-04-01T19:39:33;1.20;;;1.10;;
21621;SDS011;10973;46.706;12.340;2023-04-01T19:45:43;1.50;;;1.40;;
21621;SDS011;10973;46.706;12.340;2023-04-01T19:51:30;1.70;;;1.60;;
21621;SDS011;10973;46.706;12.340;2023-04-01T19:54:44;1.70;;;1.60;;
21621;SDS011;10973;46.706;12.340;2023-04-01T20:06:14;3.40;;;2.50;;
21621;SDS011;10973;46.706;12.340;2023-04-01T20:12:48;2.43;;;1.70;;
21621;SDS011;10973;46.706;12.340;2023-04-01T20:18:01;1.70;;;1.60;;
21621;SDS011;10973;46.706;12.340;2023-04-01T20:20:40;1.60;;;1.50;;
21621;SDS011;10973;46.706;12.340;2023-04-01T20:23:34;3.20;;;1.70;;
21621;SDS011;10973;46.706;12.340;2023-04-01T20:26:35;2.67;;;1.80;;
21621;SDS011;10973;46.706;12.340;2023-04-01T20:40:26;1.50;;;1.50;;
21621;SDS011;10973;46.706;12.340;2023-04-01T20:43:14;5.13;;;2.23;;
21621;SDS011;10973;46.706;12.340;2023-04-01T20:57:51;1.50;;;1.40;;
21621;SDS011;10973;46.706;12.340;2023-04-01T21:00:45;2.37;;;2.00;;
21621;SDS011;10973;46.706;12.340;2023-04-01T21:03:29;2.83;;;1.40;;
21621;SDS011;10973;46.706;12.340;2023-04-01T21:06:58;1.63;;;1.40;;
21621;SDS011;10973;46.706;12.340;2023-04-01T21:10:12;1.40;;;1.40;;
21621;SDS011;10973;46.706;12.340;2023-04-01T21:13:15;1.60;;;1.50;;
21621;SDS011;10973;46.706;12.340;2023-04-01T21:16:03;1.87;;;1.77;;
21621;SDS011;10973;46.706;12.340;2023-04-01T21:21:49;1.70;;;1.60;;
21621;SDS011;10973;46.706;12.340;2023-04-01T21:30:19;2.20;;;1.87;;
21621;SDS011;10973;46.706;12.340;2023-04-01T21:36:47;1.30;;;1.27;;
21621;SDS011;10973;46.706;12.340;2023-04-01T21:46:26;1.50;;;1.40;;
21621;SDS011;10973;46.706;12.340;2023-04-01T22:01:47;1.60;;;1.50;;
21621;SDS011;10973;46.706;12.340;2023-04-01T22:07:28;17.27;;;2.30;;
21621;SDS011;10973;46.706;12.340;2023-04-01T22:16:14;1.73;;;1.50;;
21621;SDS011;10973;46.706;12.340;2023-04-01T22:19:23;3.60;;;1.30;;
21621;SDS011;10973;46.706;12.340;2023-04-01T22:22:10;1.60;;;1.50;;
21621;SDS011;10973;46.706;12.340;2023-04-01T22:25:29;1.43;;;1.23;;
21621;SDS011;10973;46.706;12.340;2023-04-01T22:28:37;1.40;;;1.40;;
21621;SDS011;10973;46.706;12.340;2023-04-01T22:31:37;2.47;;;1.23;;
21621;SDS011;10973;46.706;12.340;2023-04-01T22:37:29;1.20;;;1.20;;
21621;SDS011;10973;46.706;12.340;2023-04-01T22:40:20;1.30;;;1.30;;
21621;SDS011;10973;46.706;12.340;2023-04-01T22:43:01;1.23;;;1.13;;
21621;SDS011;10973;46.706;12.340;2023-04-01T22:49:28;1.37;;;1.30;;
21621;SDS011;10973;46.706;12.340;2023-04-01T22:52:09;1.70;;;1.60;;
21621;SDS011;10973;46.706;12.340;2023-04-01T22:55:13;1.77;;;1.40;;
21621;SDS011;10973;46.706;12.340;2023-04-01T22:57:46;1.23;;;1.23;;
21621;SDS011;10973;46.706;12.340;2023-04-01T23:00:56;1.20;;;1.20;;
21621;SDS011;10973;46.706;12.340;2023-04-01T23:03:32;1.40;;;1.40;;
21621;SDS011;10973;46.706;12.340;2023-04-01T23:06:05;1.20;;;1.20;;
21621;SDS011;10973;46.706;12.340;2023-04-01T23:11:53;0.90;;;0.90;;
21621;SDS011;10973;46.706;12.340;2023-04-01T23:17:39;1.23;;;1.23;;
21621;SDS011;10973;46.706;12.340;2023-04-01T23:20:45;1.10;;;1.10;;
21621;SDS011;10973;46.706;12.340;2023-04-01T23:26:40;1.10;;;1.10;;
21621;SDS011;10973;46.706;12.340;2023-04-01T23:29:19;1.20;;;1.20;;
21621;SDS011;10973;46.706;12.340;2023-04-01T23:31:56;1.23;;;1.23;;
21621;SDS011;10973;46.706;12.340;2023-04-01T23:34:28;1.00;;;1.00;;
21621;SDS011;10973;46.706;12.340;2023-04-01T23:37:05;1.60;;;1.10;;
21621;SDS011;10973;46.706;12.340;2023-04-01T23:39:41;1.27;;;1.27;;
21621;SDS011;10973;46.706;12.340;2023-04-01T23:42:29;3.73;;;1.30;;
21621;SDS011;10973;46.706;12.340;2023-04-01T23:45:11;1.23;;;1.23;;
21621;SDS011;10973;46.706;12.340;2023-04-01T23:47:44;1.30;;;1.30;;
21621;SDS011;10973;46.706;12.340;2023-04-01T23:50:18;1.17;;;1.17;;
21621;SDS011;10973;46.706;12.340;2023-04-01T23:52:57;1.30;;;1.30;;
21621;SDS011;10973;46.706;12.340;2023-04-01T23:55:31;1.13;;;1.10;;
